Forside
METAR-TAF:

METAR-TAF

Lufthavne :

Dallas/Fort Worth International Airport

Dallas / Fort Worth, Texas, USA

Breddekreds: 32-53-49N, længdekreds: 097-01-19W, højde: 183 m

Aktuelle vejr

Denne rapport blev lavet for 17 minutter siden, kl. 09:53 UTC
Vind 4 kt fra syd
Temperatur 6°C
Fugtighed 75%
Tryk 1020 hPa
Sigt: 16.1 km
Spredte skyer i en højde af 30000 ft

METAR: KDFW 160953Z 17004KT 10SM SCT300 06/02 A3011 RMK AO2 SLP194 T00560017

Tid: 04:10 (10:10 UTC)

Vejrudsigter

Denne rapport blev lavet for 1 time og 2 minutter siden, kl. 09:08 UTC
Foreløbig gælder fra 16 på 09 UTC til 17 på 12 UTC
Vind 5 kt fra syd
Sigt: 10 km
Brudte skyer i en højde af 30000 ft
Fra 16 på 1700 UTC
Vind 8 kt fra sydvest
Sigt: 10 km
Spredte skyer i en højde af 30000 ft

TAF: KDFW 160908Z 1609/1712 19005KT P6SM BKN300 FM161700 22008KT P6SM SCT300

Vejrobservationer og prognoser fra mere end 4000 lufthavne (METAR og TAF).

De gule og røde prikker repræsenterer de meteorologiske stationer.

Flyt musen over at se navnet på stationen.

Så klik over at se vejr observationer og prognoser.

At skifte det kort: Klik på de grønne knapper med et sort kors for at zoome ind; på den grønne knap med en bindestreg for at zoome ud; eller på de grønne pile for tilstødende kort.


METAR-TAF: